createdAt,value
2023-03-20T00:01:58.684Z,8.98
2023-03-20T00:04:26.306Z,9.63
2023-03-20T00:06:53.621Z,12.15
2023-03-20T00:09:21.286Z,10.23
2023-03-20T00:11:51.092Z,6.28
2023-03-20T00:14:22.374Z,7.30
2023-03-20T00:16:49.777Z,14.38
2023-03-20T00:19:23.569Z,10.13
2023-03-20T00:21:51.616Z,6.43
2023-03-20T00:24:18.959Z,10.50
2023-03-20T00:26:47.495Z,9.60
2023-03-20T00:29:18.417Z,8.52
2023-03-20T00:31:45.873Z,8.35
2023-03-20T00:34:15.031Z,10.43
2023-03-20T00:36:42.305Z,10.27
2023-03-20T00:39:09.615Z,7.88
2023-03-20T00:41:39.570Z,8.70
2023-03-20T00:44:18.427Z,11.25
2023-03-20T00:46:49.653Z,7.90
2023-03-20T00:49:17.152Z,10.15
2023-03-20T00:51:44.665Z,6.65
2023-03-20T00:54:16.622Z,9.60
2023-03-20T00:56:45.830Z,8.95
2023-03-20T00:59:19.255Z,6.10
2023-03-20T01:01:46.865Z,7.30
2023-03-20T01:04:16.751Z,7.25
2023-03-20T01:06:44.820Z,8.52
2023-03-20T01:09:12.338Z,9.48
2023-03-20T01:11:41.692Z,7.88
2023-03-20T01:14:15.200Z,6.82
2023-03-20T01:16:42.669Z,8.57
2023-03-20T01:19:16.865Z,8.20
2023-03-20T01:21:43.960Z,9.68
2023-03-20T01:24:10.968Z,8.25
2023-03-20T01:26:40.877Z,9.50
2023-03-20T01:31:45.024Z,10.93
2023-03-20T01:34:12.394Z,8.85
2023-03-20T01:36:39.961Z,8.73
2023-03-20T01:39:07.464Z,4.57
2023-03-20T01:41:34.806Z,11.32
2023-03-20T01:44:17.469Z,9.82
2023-03-20T01:46:45.031Z,10.95
2023-03-20T01:49:21.777Z,8.70
2023-03-20T01:51:52.785Z,13.25
2023-03-20T01:54:29.603Z,8.35
2023-03-20T01:57:09.045Z,12.88
2023-03-20T01:59:38.330Z,7.60
2023-03-20T02:02:06.771Z,11.88
2023-03-20T02:04:36.077Z,7.68
2023-03-20T02:07:05.106Z,12.30
2023-03-20T02:09:32.496Z,8.55
2023-03-20T02:12:01.155Z,8.70
2023-03-20T02:14:29.458Z,9.60
2023-03-20T02:16:56.601Z,9.60
2023-03-20T02:19:36.475Z,9.30
2023-03-20T02:22:22.048Z,7.18
2023-03-20T02:25:15.711Z,8.55
2023-03-20T02:27:43.163Z,7.30
2023-03-20T02:30:44.237Z,10.23
2023-03-20T02:34:02.240Z,16.73
2023-03-20T02:36:47.848Z,8.18
2023-03-20T02:39:32.641Z,11.40
2023-03-20T02:42:33.941Z,7.60
2023-03-20T02:45:12.790Z,10.95
2023-03-20T02:47:54.884Z,9.23
2023-03-20T02:50:42.046Z,10.13
2023-03-20T02:53:24.017Z,13.13
2023-03-20T02:56:14.733Z,10.07
2023-03-20T02:58:45.612Z,15.68
2023-03-20T03:01:21.145Z,12.15
2023-03-20T03:04:19.509Z,9.50
2023-03-20T03:06:50.227Z,7.68
2023-03-20T03:09:30.715Z,14.85
2023-03-20T03:12:05.543Z,9.68
2023-03-20T03:14:44.260Z,7.70
2023-03-20T03:17:11.998Z,9.57
2023-03-20T03:19:42.482Z,13.15
2023-03-20T03:22:09.520Z,13.50
2023-03-20T03:24:45.388Z,10.88
2023-03-20T03:27:25.550Z,10.50
2023-03-20T03:30:20.514Z,9.55
2023-03-20T03:32:51.207Z,8.93
2023-03-20T03:35:21.484Z,9.27
2023-03-20T03:37:55.011Z,9.43
2023-03-20T03:40:44.671Z,10.25
2023-03-20T03:43:51.443Z,10.95
2023-03-20T03:46:52.735Z,8.00
2023-03-20T03:49:24.598Z,8.38
2023-03-20T03:51:59.994Z,10.15
2023-03-20T03:54:35.715Z,7.43
2023-03-20T03:57:05.001Z,6.85
2023-03-20T03:59:39.159Z,11.40
2023-03-20T04:02:09.155Z,13.15
2023-03-20T04:04:40.434Z,14.68
2023-03-20T04:07:07.436Z,11.23
2023-03-20T04:09:34.665Z,13.15
2023-03-20T04:12:02.427Z,10.10
2023-03-20T04:14:30.263Z,13.23
2023-03-20T04:16:57.594Z,9.02
2023-03-20T04:19:24.885Z,12.68
2023-03-20T04:21:52.039Z,14.63
2023-03-20T04:24:19.353Z,10.30
2023-03-20T04:26:46.535Z,16.73
2023-03-20T04:29:14.266Z,10.32
2023-03-20T04:31:41.496Z,10.75
2023-03-20T04:34:08.857Z,9.23
2023-03-20T04:36:36.286Z,11.25
2023-03-20T04:39:03.550Z,11.63
2023-03-20T04:41:30.557Z,9.40
2023-03-20T04:43:57.566Z,11.02
2023-03-20T04:46:24.947Z,8.93
2023-03-20T04:48:51.970Z,8.77
2023-03-20T04:51:19.262Z,16.58
2023-03-20T04:53:46.348Z,10.60
2023-03-20T04:56:13.458Z,10.82
2023-03-20T04:58:40.752Z,12.93
2023-03-20T05:01:10.533Z,11.63
2023-03-20T05:03:37.576Z,11.32
2023-03-20T05:06:04.705Z,15.48
2023-03-20T05:08:31.652Z,12.38
2023-03-20T05:10:58.773Z,11.30
2023-03-20T05:13:26.223Z,14.63
2023-03-20T05:15:54.271Z,15.82
2023-03-20T05:18:21.311Z,30.20
2023-03-20T05:20:49.782Z,23.58
2023-03-20T05:23:16.744Z,18.30
2023-03-20T05:25:44.100Z,9.55
2023-03-20T05:28:11.170Z,17.73
2023-03-20T05:30:38.238Z,23.92
2023-03-20T05:33:05.362Z,16.95
2023-03-20T05:35:32.677Z,16.58
2023-03-20T05:37:59.658Z,16.52
2023-03-20T05:40:26.803Z,27.27
2023-03-20T05:42:53.752Z,18.15
2023-03-20T05:45:20.825Z,20.65
2023-03-20T05:47:47.936Z,20.23
2023-03-20T05:50:15.004Z,27.67
2023-03-20T05:52:41.957Z,25.70
2023-03-20T05:55:09.021Z,20.05
2023-03-20T05:57:35.989Z,19.42
2023-03-20T06:00:03.180Z,19.70
2023-03-20T06:02:30.200Z,58.83
2023-03-20T06:04:57.228Z,43.90
2023-03-20T06:07:24.251Z,56.13
2023-03-20T06:09:52.073Z,20.50
2023-03-20T06:12:20.738Z,39.25
2023-03-20T06:14:47.666Z,22.95
2023-03-20T06:17:15.091Z,26.45
2023-03-20T06:19:41.982Z,161.55
2023-03-20T06:22:09.006Z,127.40
2023-03-20T06:24:36.984Z,89.68
2023-03-20T06:27:04.689Z,89.85
2023-03-20T06:29:31.785Z,179.60
2023-03-20T06:31:59.133Z,186.50
2023-03-20T06:34:27.142Z,61.30
2023-03-20T06:36:54.032Z,100.80
2023-03-20T06:39:21.068Z,140.02
2023-03-20T06:41:48.345Z,154.20
2023-03-20T06:44:16.579Z,99.63
2023-03-20T06:46:43.621Z,106.45
2023-03-20T06:49:11.041Z,193.73
2023-03-20T06:51:38.073Z,136.13
2023-03-20T06:54:06.204Z,69.78
2023-03-20T06:56:33.202Z,106.78
2023-03-20T06:59:00.575Z,117.40
2023-03-20T07:01:28.315Z,111.13
2023-03-20T07:03:55.821Z,71.00
2023-03-20T07:06:23.331Z,142.23
2023-03-20T07:08:51.509Z,161.52
2023-03-20T07:11:19.584Z,150.98
2023-03-20T07:13:49.763Z,67.93
2023-03-20T07:16:17.287Z,148.63
2023-03-20T07:18:44.177Z,206.57
2023-03-20T07:21:18.815Z,147.70
2023-03-20T07:23:45.788Z,166.55
2023-03-20T07:26:13.979Z,97.20
2023-03-20T07:28:41.030Z,88.57
2023-03-20T07:31:08.477Z,189.90
2023-03-20T07:33:36.222Z,200.25
2023-03-20T07:36:03.773Z,81.28
2023-03-20T07:38:30.792Z,54.60
2023-03-20T07:40:58.177Z,192.55
2023-03-20T07:43:25.587Z,204.43
2023-03-20T07:45:53.511Z,73.88
2023-03-20T07:48:20.969Z,104.13
2023-03-20T07:50:48.040Z,194.45
2023-03-20T07:53:15.406Z,151.32
2023-03-20T07:55:45.330Z,93.45
2023-03-20T08:00:39.569Z,152.80
2023-03-20T08:03:06.607Z,137.85
2023-03-20T08:05:34.164Z,163.93
2023-03-20T08:08:01.683Z,133.27
2023-03-20T08:13:05.356Z,111.93
2023-03-20T08:15:33.391Z,62.30
2023-03-20T08:18:01.281Z,67.85
2023-03-20T08:20:29.204Z,113.32
2023-03-20T08:22:56.890Z,126.03
2023-03-20T08:25:24.432Z,58.65
2023-03-20T08:27:52.172Z,56.85
2023-03-20T08:32:49.231Z,145.02
2023-03-20T08:35:32.080Z,93.38
2023-03-20T08:38:00.716Z,148.63
2023-03-20T08:40:27.973Z,110.75
2023-03-20T08:42:54.955Z,47.97
2023-03-20T08:45:25.904Z,80.95
2023-03-20T08:47:53.722Z,170.40
2023-03-20T08:50:21.055Z,120.03
2023-03-20T08:52:48.577Z,55.53
2023-03-20T08:55:16.518Z,89.10
2023-03-20T08:57:44.019Z,144.50
2023-03-20T09:00:14.410Z,155.05
2023-03-20T09:02:42.426Z,170.98
2023-03-20T09:05:11.246Z,69.53
2023-03-20T09:07:38.793Z,102.85
2023-03-20T09:10:06.457Z,50.05
2023-03-20T09:12:34.634Z,130.02
2023-03-20T09:15:03.141Z,148.80
2023-03-20T09:17:31.671Z,81.18
2023-03-20T09:19:59.279Z,59.50
2023-03-20T09:22:27.017Z,70.22
2023-03-20T09:24:54.721Z,105.72
2023-03-20T09:27:22.672Z,67.65
2023-03-20T09:29:50.620Z,63.80
2023-03-20T09:32:19.817Z,89.35
2023-03-20T09:34:48.901Z,123.88
2023-03-20T09:37:16.588Z,94.97
2023-03-20T09:39:44.364Z,55.20
2023-03-20T09:42:45.002Z,51.97
2023-03-20T09:45:15.950Z,91.50
2023-03-20T09:48:15.212Z,87.28
2023-03-20T09:51:13.591Z,89.18
2023-03-20T09:53:52.434Z,42.92
2023-03-20T09:56:26.569Z,44.40
2023-03-20T09:58:57.104Z,37.95
2023-03-20T10:01:32.110Z,53.70
2023-03-20T10:04:09.275Z,46.47
2023-03-20T10:06:37.430Z,40.28
2023-03-20T10:09:24.962Z,79.25
2023-03-20T10:12:06.940Z,59.65
2023-03-20T10:14:57.240Z,107.53
2023-03-20T10:17:44.637Z,60.88
2023-03-20T10:20:15.443Z,85.47
2023-03-20T10:22:48.309Z,72.70
2023-03-20T10:25:25.008Z,56.80
2023-03-20T10:28:04.432Z,50.22
2023-03-20T10:30:51.059Z,83.95
2023-03-20T10:33:42.015Z,100.38
2023-03-20T10:36:22.225Z,33.75
2023-03-20T10:38:59.454Z,67.03
2023-03-20T10:41:31.040Z,98.00
2023-03-20T10:44:00.739Z,51.97
2023-03-20T10:46:30.246Z,46.45
2023-03-20T10:49:08.729Z,87.00
2023-03-20T10:51:57.791Z,83.25
2023-03-20T10:54:35.901Z,126.15
2023-03-20T10:57:07.894Z,114.05
2023-03-20T10:59:40.789Z,125.93
2023-03-20T11:02:13.107Z,124.43
2023-03-20T11:04:42.818Z,156.50
2023-03-20T11:10:08.254Z,122.45
2023-03-20T11:12:38.341Z,172.43
2023-03-20T11:15:16.721Z,131.65
2023-03-20T11:17:44.856Z,152.82
2023-03-20T11:20:15.717Z,96.72
2023-03-20T11:22:44.679Z,77.72
2023-03-20T11:25:25.252Z,109.63
2023-03-20T11:27:56.172Z,44.83
2023-03-20T11:30:24.553Z,54.30
2023-03-20T11:32:55.942Z,116.03
2023-03-20T11:35:26.054Z,108.78
2023-03-20T11:38:11.682Z,102.18
2023-03-20T11:40:42.427Z,103.82
2023-03-20T11:43:14.701Z,102.00
2023-03-20T11:45:48.949Z,109.63
2023-03-20T11:48:22.710Z,74.60
2023-03-20T11:50:56.813Z,85.10
2023-03-20T11:53:27.241Z,78.22
2023-03-20T11:56:04.371Z,109.75
2023-03-20T11:58:58.242Z,89.80
2023-03-20T12:01:27.329Z,95.70
2023-03-20T12:04:06.904Z,45.85
2023-03-20T12:07:00.101Z,94.47
2023-03-20T12:10:02.124Z,57.22
2023-03-20T12:12:48.578Z,82.03
2023-03-20T12:15:30.977Z,43.40
2023-03-20T12:18:02.313Z,88.07
2023-03-20T12:20:45.068Z,56.65
2023-03-20T12:23:22.721Z,141.93
2023-03-20T12:25:58.935Z,85.95
2023-03-20T12:28:29.023Z,69.40
2023-03-20T12:31:02.556Z,82.05
2023-03-20T12:33:30.439Z,57.35
2023-03-20T12:35:59.669Z,39.83
2023-03-20T12:38:37.008Z,70.22
2023-03-20T12:41:13.760Z,51.15
2023-03-20T12:43:47.752Z,45.20
2023-03-20T12:46:40.805Z,44.83
2023-03-20T12:49:17.060Z,84.90
2023-03-20T12:51:55.684Z,77.85
2023-03-20T12:54:36.135Z,98.80
2023-03-20T12:57:37.814Z,64.85
2023-03-20T13:00:33.577Z,85.97
2023-03-20T13:03:04.518Z,97.47
2023-03-20T13:05:35.336Z,51.17
2023-03-20T13:08:03.155Z,39.75
2023-03-20T13:10:34.127Z,26.65
2023-03-20T13:13:27.189Z,41.72
2023-03-20T13:16:19.341Z,38.05
2023-03-20T13:19:27.186Z,49.42
2023-03-20T13:22:17.681Z,41.03
2023-03-20T13:25:14.124Z,45.95
2023-03-20T13:28:08.157Z,62.47
2023-03-20T13:30:41.825Z,38.85
2023-03-20T13:33:38.866Z,34.17
2023-03-20T13:36:34.047Z,26.55
2023-03-20T13:39:11.462Z,36.85
2023-03-20T13:41:39.443Z,35.53
2023-03-20T13:44:08.490Z,30.50
2023-03-20T13:46:42.600Z,57.25
2023-03-20T13:49:21.138Z,45.80
2023-03-20T13:52:11.744Z,12.52
2023-03-20T13:54:41.741Z,25.63
2023-03-20T13:57:46.909Z,42.65
2023-03-20T14:00:51.759Z,35.17
2023-03-20T14:03:28.878Z,32.15
2023-03-20T14:05:57.021Z,26.35
2023-03-20T14:08:24.797Z,47.90
2023-03-20T14:11:08.036Z,21.23
2023-03-20T14:13:36.339Z,28.15
2023-03-20T14:16:05.966Z,40.17
2023-03-20T14:18:33.616Z,26.58
2023-03-20T14:21:02.379Z,29.33
2023-03-20T14:23:44.422Z,29.90
2023-03-20T14:26:18.456Z,47.90
2023-03-20T14:28:53.218Z,29.85
2023-03-20T14:31:25.646Z,33.65
2023-03-20T14:34:17.953Z,96.00
2023-03-20T14:36:53.205Z,21.23
2023-03-20T14:39:21.402Z,39.55
2023-03-20T14:41:58.395Z,39.45
2023-03-20T14:44:35.477Z,29.50
2023-03-20T14:47:06.391Z,40.72
2023-03-20T14:49:43.366Z,26.33
2023-03-20T14:52:20.240Z,24.30
2023-03-20T14:54:53.416Z,39.92
2023-03-20T14:57:34.096Z,48.15
2023-03-20T15:00:06.712Z,28.90
2023-03-20T15:02:36.976Z,41.95
2023-03-20T15:05:05.145Z,26.52
2023-03-20T15:07:35.633Z,64.03
2023-03-20T15:10:04.105Z,25.58
2023-03-20T15:12:35.327Z,22.88
2023-03-20T15:15:05.332Z,39.88
2023-03-20T15:17:38.665Z,27.50
2023-03-20T15:20:24.855Z,46.45
2023-03-20T15:22:58.065Z,22.40
2023-03-20T15:25:29.797Z,27.50
2023-03-20T15:27:57.548Z,25.17
2023-03-20T15:30:29.544Z,32.17
2023-03-20T15:32:57.634Z,31.17
2023-03-20T15:35:27.208Z,27.98
2023-03-20T15:37:55.832Z,29.40
2023-03-20T15:40:34.567Z,22.45
2023-03-20T15:43:21.270Z,32.63
2023-03-20T15:45:50.851Z,30.95
2023-03-20T15:48:21.145Z,34.78
2023-03-20T15:51:01.294Z,30.13
2023-03-20T15:53:33.794Z,28.08
2023-03-20T15:56:17.855Z,46.83
2023-03-20T15:58:46.519Z,49.42
2023-03-20T16:01:18.791Z,25.35
2023-03-20T16:03:46.700Z,60.63
2023-03-20T16:06:17.968Z,26.50
2023-03-20T16:08:47.032Z,59.65
2023-03-20T16:11:16.224Z,41.22
2023-03-20T16:13:46.848Z,23.73
2023-03-20T16:16:19.651Z,32.55
2023-03-20T16:18:48.297Z,26.25
2023-03-20T16:21:25.274Z,32.83
2023-03-20T16:24:00.386Z,43.28
2023-03-20T16:26:28.674Z,61.13
2023-03-20T16:29:02.158Z,67.05
2023-03-20T16:31:31.906Z,69.55
2023-03-20T16:36:52.229Z,61.78
2023-03-20T16:39:21.703Z,62.15
2023-03-20T16:41:53.527Z,97.57
2023-03-20T16:44:25.741Z,69.97
2023-03-20T16:47:04.074Z,30.02
2023-03-20T16:49:37.355Z,36.88
2023-03-20T16:52:09.974Z,52.38
2023-03-20T16:54:38.404Z,28.08
2023-03-20T16:57:10.040Z,45.05
2023-03-20T16:59:40.163Z,31.20
2023-03-20T17:02:23.700Z,58.03
2023-03-20T17:04:55.638Z,52.67
2023-03-20T17:07:27.578Z,63.75
2023-03-20T17:10:20.293Z,27.40
2023-03-20T17:12:50.491Z,33.45
2023-03-20T17:15:20.118Z,34.50
2023-03-20T17:17:48.283Z,36.25
2023-03-20T17:20:26.368Z,31.00
2023-03-20T17:22:54.900Z,77.38
2023-03-20T17:25:22.833Z,50.97
2023-03-20T17:27:50.828Z,26.58
2023-03-20T17:30:23.154Z,69.55
2023-03-20T17:32:50.818Z,48.42
2023-03-20T17:35:19.107Z,41.58
2023-03-20T17:37:49.054Z,42.70
2023-03-20T17:40:22.281Z,45.47
2023-03-20T17:42:50.079Z,44.88
2023-03-20T17:45:20.684Z,42.60
2023-03-20T17:47:49.492Z,21.90
2023-03-20T17:50:21.357Z,45.13
2023-03-20T17:52:49.690Z,25.52
2023-03-20T17:55:17.590Z,38.83
2023-03-20T17:57:45.311Z,39.25
2023-03-20T18:00:21.720Z,50.50
2023-03-20T18:02:50.009Z,22.83
2023-03-20T18:05:18.015Z,27.27
2023-03-20T18:07:45.925Z,22.73
2023-03-20T18:10:26.306Z,29.60
2023-03-20T18:12:54.736Z,30.75
2023-03-20T18:15:25.523Z,30.52
2023-03-20T18:17:53.380Z,35.70
2023-03-20T18:20:28.875Z,28.02
2023-03-20T18:22:56.823Z,19.58
2023-03-20T18:25:26.165Z,16.65
2023-03-20T18:27:54.612Z,20.52
2023-03-20T18:30:27.249Z,17.23
2023-03-20T18:32:55.248Z,19.60
2023-03-20T18:35:23.000Z,14.93
2023-03-20T18:37:50.891Z,16.52
2023-03-20T18:40:23.719Z,20.92
2023-03-20T18:42:51.588Z,18.35
2023-03-20T18:45:19.526Z,16.95
2023-03-20T18:47:47.332Z,17.05
2023-03-20T18:50:27.529Z,17.92
2023-03-20T18:52:55.935Z,20.15
2023-03-20T18:55:24.627Z,17.30
2023-03-20T18:57:52.720Z,16.25
2023-03-20T19:00:23.354Z,17.75
2023-03-20T19:02:51.577Z,16.73
2023-03-20T19:05:19.798Z,16.33
2023-03-20T19:07:48.116Z,15.18
2023-03-20T19:10:36.091Z,15.38
2023-03-20T19:13:05.866Z,20.58
2023-03-20T19:15:35.887Z,23.20
2023-03-20T19:18:04.169Z,24.67
2023-03-20T19:20:34.192Z,21.85
2023-03-20T19:23:02.705Z,23.48
2023-03-20T19:25:31.214Z,38.80
2023-03-20T19:27:59.189Z,34.35
2023-03-20T19:30:27.288Z,26.50
2023-03-20T19:32:55.152Z,18.98
2023-03-20T19:38:15.539Z,35.10
2023-03-20T19:40:46.087Z,29.55
2023-03-20T19:43:13.940Z,38.90
2023-03-20T19:45:43.166Z,30.35
2023-03-20T19:48:15.424Z,38.28
2023-03-20T19:50:46.376Z,29.75
2023-03-20T19:53:15.763Z,37.70
2023-03-20T19:55:43.385Z,16.95
2023-03-20T19:58:11.285Z,41.95
2023-03-20T20:00:58.006Z,18.85
2023-03-20T20:03:27.315Z,26.60
2023-03-20T20:05:55.049Z,20.20
2023-03-20T20:08:38.330Z,22.77
2023-03-20T20:11:12.277Z,29.88
2023-03-20T20:14:03.797Z,29.92
2023-03-20T20:16:29.469Z,33.65
2023-03-20T20:18:57.493Z,41.03
2023-03-20T20:24:13.460Z,15.98
2023-03-20T20:26:51.392Z,22.00
2023-03-20T20:29:22.244Z,23.90
2023-03-20T20:31:50.164Z,21.95
2023-03-20T20:38:09.072Z,32.40
2023-03-20T20:39:53.688Z,20.95
2023-03-20T20:42:21.622Z,28.75
2023-03-20T20:44:49.493Z,19.63
2023-03-20T20:47:17.539Z,22.33
2023-03-20T20:49:47.220Z,40.55
2023-03-20T20:52:15.773Z,29.60
2023-03-20T20:54:43.359Z,24.48
2023-03-20T20:57:12.341Z,34.97
2023-03-20T20:59:40.569Z,27.80
2023-03-20T21:02:11.867Z,36.65
2023-03-20T21:04:43.703Z,28.10
2023-03-20T21:07:12.734Z,33.55
2023-03-20T21:09:40.707Z,44.97
2023-03-20T21:12:30.764Z,29.70
2023-03-20T21:15:02.865Z,23.15
2023-03-20T21:17:30.788Z,29.38
2023-03-20T21:19:58.720Z,25.58
2023-03-20T21:22:26.692Z,32.20
2023-03-20T21:25:11.063Z,31.75
2023-03-20T21:27:41.798Z,25.70
2023-03-20T21:30:09.957Z,29.00
2023-03-20T21:32:37.921Z,33.15
2023-03-20T21:35:07.768Z,33.10
2023-03-20T21:40:23.817Z,41.22
2023-03-20T21:42:51.662Z,28.55
2023-03-20T21:46:15.330Z,31.80
2023-03-20T21:51:42.757Z,18.30
2023-03-20T21:55:19.426Z,23.58
2023-03-20T21:57:04.954Z,16.98
2023-03-20T21:59:53.840Z,23.17
2023-03-20T22:02:14.113Z,27.98
2023-03-20T22:08:18.486Z,30.70
2023-03-20T22:11:24.915Z,25.45
2023-03-20T22:14:09.195Z,51.75
2023-03-20T22:16:57.464Z,21.60
2023-03-20T22:19:49.952Z,22.70
2023-03-20T22:22:22.970Z,30.70
2023-03-20T22:46:54.482Z,40.97
2023-03-20T22:49:22.324Z,27.13
2023-03-20T22:52:11.464Z,41.15
2023-03-20T22:54:37.711Z,36.47
2023-03-20T22:57:05.560Z,41.13
2023-03-20T22:59:33.384Z,48.92
2023-03-20T23:02:01.398Z,25.17
2023-03-20T23:04:30.186Z,22.70
2023-03-20T23:06:57.908Z,24.13
2023-03-20T23:09:25.868Z,33.05
2023-03-20T23:11:54.974Z,31.17
2023-03-20T23:14:23.648Z,27.33
2023-03-20T23:16:52.861Z,26.20
2023-03-20T23:19:20.622Z,29.73
2023-03-20T23:21:48.777Z,42.72
2023-03-20T23:24:17.165Z,23.08
2023-03-20T23:26:44.992Z,48.92
2023-03-20T23:29:12.716Z,51.40
2023-03-20T23:31:40.757Z,27.95
2023-03-20T23:34:08.555Z,20.48
2023-03-20T23:36:37.680Z,39.10
2023-03-20T23:39:10.097Z,26.00
2023-03-20T23:44:25.994Z,32.45
2023-03-20T23:46:54.816Z,29.35
2023-03-20T23:49:22.621Z,20.75
2023-03-20T23:51:50.466Z,29.77
2023-03-20T23:54:18.311Z,25.77
2023-03-20T23:56:46.128Z,22.15
2023-03-20T23:59:22.037Z,36.55
